Time;durP1;ratioP1;P1;durP2;ratioP2;P2;SDS_P1;SDS_P2;PMS_P1;PMS_P2;Temp;Humidity;BMP_temperature;BMP_pressure;BME280_temperature;BME280_humidity;BME280_pressure;Samples;Min_cycle;Max_cycle;Signal;HPM_P1;HPM_P2
2023/04/11 00:00:31;;;;;;;5.23;3.27;;;;;;;;;;5125449;28;20443;-70
2023/04/11 00:03:05;;;;;;;5.07;3.53;;;;;;;;;;5125695;28;20431;-69
2023/04/11 00:05:35;;;;;;;5.20;3.73;;;;;;;;;;5123614;28;20455;-70
2023/04/11 00:08:08;;;;;;;6.47;3.30;;;;;;;;;;5124245;28;20455;-70
2023/04/11 00:10:44;;;;;;;5.50;3.30;;;;;;;;;;5123637;28;20461;-70
2023/04/11 00:13:14;;;;;;;5.37;3.53;;;;;;;;;;5119732;28;20494;-71
2023/04/11 00:15:52;;;;;;;6.37;3.50;;;;;;;;;;5123948;28;20510;-70
2023/04/11 00:18:19;;;;;;;4.73;3.17;;;;;;;;;;5123119;28;20442;-70
2023/04/11 00:20:47;;;;;;;5.10;3.60;;;;;;;;;;5122058;28;20921;-69
2023/04/11 00:23:15;;;;;;;6.40;3.40;;;;;;;;;;5123516;28;20529;-69
2023/04/11 00:25:44;;;;;;;5.00;3.50;;;;;;;;;;5123337;28;20847;-70
2023/04/11 00:28:12;;;;;;;4.67;3.47;;;;;;;;;;5122722;28;20456;-70
2023/04/11 00:30:44;;;;;;;4.57;2.70;;;;;;;;;;5125662;28;20510;-70
2023/04/11 00:33:38;;;;;;;6.77;4.67;;;;;;;;;;5124326;28;20451;-71
2023/04/11 00:36:08;;;;;;;5.63;3.70;;;;;;;;;;5128939;27;20462;-68
2023/04/11 00:38:35;;;;;;;6.33;3.60;;;;;;;;;;5130020;27;20439;-69
2023/04/11 00:41:09;;;;;;;3.93;2.83;;;;;;;;;;5127863;27;20922;-70
2023/04/11 00:43:37;;;;;;;7.40;4.37;;;;;;;;;;5127705;27;20508;-70
2023/04/11 00:46:09;;;;;;;5.20;3.40;;;;;;;;;;5114360;27;20561;-69
2023/04/11 00:48:36;;;;;;;5.33;3.70;;;;;;;;;;5112710;28;20597;-69
2023/04/11 00:51:05;;;;;;;6.80;4.57;;;;;;;;;;5116042;27;20773;-71
2023/04/11 00:53:34;;;;;;;5.30;3.50;;;;;;;;;;5124946;27;20781;-70
2023/04/11 00:56:14;;;;;;;4.90;3.60;;;;;;;;;;5121706;27;20462;-70
2023/04/11 00:58:42;;;;;;;5.67;4.20;;;;;;;;;;5114707;27;20706;-70
2023/04/11 01:01:10;;;;;;;6.20;4.20;;;;;;;;;;5123699;27;20484;-70
2023/04/11 01:03:40;;;;;;;6.20;3.90;;;;;;;;;;5120864;27;20439;-71
2023/04/11 01:06:08;;;;;;;5.80;3.60;;;;;;;;;;5118715;28;20458;-70
2023/04/11 01:08:37;;;;;;;6.73;3.97;;;;;;;;;;5124882;27;20470;-70
2023/04/11 01:11:06;;;;;;;5.20;4.00;;;;;;;;;;5108244;28;20765;-70
2023/04/11 01:13:34;;;;;;;6.57;4.70;;;;;;;;;;5110937;28;20459;-69
2023/04/11 01:16:05;;;;;;;5.50;3.83;;;;;;;;;;5124513;27;20537;-71
2023/04/11 01:18:33;;;;;;;5.73;3.60;;;;;;;;;;5128503;27;20490;-70
2023/04/11 01:21:01;;;;;;;7.87;3.80;;;;;;;;;;5122614;27;20458;-70
2023/04/11 01:23:33;;;;;;;6.90;3.80;;;;;;;;;;5127426;27;20444;-70
2023/04/11 01:26:01;;;;;;;7.53;3.50;;;;;;;;;;5128100;27;21120;-70
2023/04/11 01:28:29;;;;;;;5.43;3.73;;;;;;;;;;5128130;27;21081;-70
2023/04/11 01:30:57;;;;;;;4.77;3.37;;;;;;;;;;5127718;27;20573;-70
2023/04/11 01:33:24;;;;;;;7.43;3.60;;;;;;;;;;5127244;27;20580;-70
2023/04/11 01:35:59;;;;;;;6.67;3.57;;;;;;;;;;5129149;27;20514;-71
2023/04/11 01:38:26;;;;;;;6.20;3.80;;;;;;;;;;5116241;27;20446;-71
2023/04/11 01:41:02;;;;;;;4.30;3.10;;;;;;;;;;5129416;27;20501;-70
2023/04/11 01:43:29;;;;;;;6.23;3.40;;;;;;;;;;5121021;27;21976;-71
2023/04/11 01:45:57;;;;;;;6.80;3.70;;;;;;;;;;5118088;28;20451;-70
2023/04/11 01:48:25;;;;;;;4.60;3.40;;;;;;;;;;5118401;28;20463;-70
2023/04/11 01:51:00;;;;;;;5.53;4.07;;;;;;;;;;5115945;28;20454;-70
2023/04/11 01:53:28;;;;;;;6.10;4.20;;;;;;;;;;5096462;28;20487;-70
2023/04/11 01:55:57;;;;;;;6.20;3.13;;;;;;;;;;5096627;28;20448;-70
2023/04/11 01:58:24;;;;;;;5.30;3.30;;;;;;;;;;5096859;28;20720;-70
2023/04/11 02:00:52;;;;;;;5.63;3.13;;;;;;;;;;5099274;28;20448;-70
2023/04/11 02:03:19;;;;;;;5.90;3.40;;;;;;;;;;5118056;28;20730;-70
2023/04/11 02:05:47;;;;;;;5.33;3.10;;;;;;;;;;5116762;28;20459;-69
2023/04/11 02:08:14;;;;;;;6.53;4.57;;;;;;;;;;5117945;28;20549;-70
2023/04/11 02:10:48;;;;;;;4.80;3.30;;;;;;;;;;5103249;28;20506;-70
2023/04/11 02:13:22;;;;;;;6.60;4.03;;;;;;;;;;5096887;28;20462;-70
2023/04/11 02:15:50;;;;;;;6.37;3.23;;;;;;;;;;5097125;28;20518;-70
2023/04/11 02:18:17;;;;;;;5.00;3.27;;;;;;;;;;5097084;28;20457;-70
2023/04/11 02:20:49;;;;;;;4.97;3.40;;;;;;;;;;5096959;28;20463;-70
2023/04/11 02:23:16;;;;;;;5.47;3.37;;;;;;;;;;5096484;28;20523;-70
2023/04/11 02:25:43;;;;;;;6.27;3.47;;;;;;;;;;5095219;28;20819;-70
2023/04/11 02:28:11;;;;;;;8.03;3.33;;;;;;;;;;5097098;28;20483;-70
2023/04/11 02:30:44;;;;;;;5.50;2.73;;;;;;;;;;5097746;28;20452;-70
2023/04/11 02:33:21;;;;;;;4.33;3.37;;;;;;;;;;5097335;28;20491;-70
2023/04/11 02:35:49;;;;;;;4.80;2.77;;;;;;;;;;5097429;28;20466;-70
2023/04/11 02:38:19;;;;;;;4.57;2.50;;;;;;;;;;5115174;28;20459;-70
2023/04/11 02:40:53;;;;;;;4.43;2.80;;;;;;;;;;5117162;28;20450;-70
2023/04/11 02:43:21;;;;;;;3.40;2.00;;;;;;;;;;5116453;28;20516;-70
2023/04/11 02:45:52;;;;;;;4.10;2.43;;;;;;;;;;5115725;28;20903;-70
2023/04/11 02:48:19;;;;;;;2.97;1.73;;;;;;;;;;5115439;28;20463;-70
2023/04/11 02:50:47;;;;;;;3.80;1.60;;;;;;;;;;5113570;28;20479;-70
2023/04/11 02:53:15;;;;;;;2.63;1.50;;;;;;;;;;5115475;28;20750;-70
2023/04/11 02:55:42;;;;;;;2.63;1.60;;;;;;;;;;5105984;28;20555;-70
2023/04/11 02:58:16;;;;;;;3.67;1.57;;;;;;;;;;5096162;28;20443;-70
2023/04/11 03:00:46;;;;;;;2.43;1.40;;;;;;;;;;5097347;28;20460;-70
2023/04/11 03:03:14;;;;;;;4.13;1.47;;;;;;;;;;5096968;28;20471;-69
2023/04/11 03:05:44;;;;;;;2.20;1.33;;;;;;;;;;5115997;28;20451;-70
2023/04/11 03:08:14;;;;;;;4.50;1.80;;;;;;;;;;5116761;28;20450;-70
2023/04/11 03:10:45;;;;;;;2.67;1.30;;;;;;;;;;5116787;28;20512;-70
2023/04/11 03:13:12;;;;;;;3.63;1.70;;;;;;;;;;5117064;28;20479;-69
2023/04/11 03:15:40;;;;;;;3.10;1.87;;;;;;;;;;5112670;28;20470;-70
2023/04/11 03:18:08;;;;;;;2.93;1.27;;;;;;;;;;5097026;28;20467;-70
2023/04/11 03:20:59;;;;;;;2.33;1.57;;;;;;;;;;5096192;28;20444;-70
2023/04/11 03:23:28;;;;;;;6.60;2.20;;;;;;;;;;5096847;28;20666;-70
2023/04/11 03:25:59;;;;;;;3.23;1.93;;;;;;;;;;5096318;28;20635;-70
2023/04/11 03:28:26;;;;;;;5.70;1.30;;;;;;;;;;5095693;28;20444;-69
2023/04/11 03:30:55;;;;;;;1.90;0.70;;;;;;;;;;5114135;28;20714;-69
2023/04/11 03:33:22;;;;;;;2.10;1.07;;;;;;;;;;5116797;28;20573;-70
2023/04/11 03:35:50;;;;;;;2.60;0.93;;;;;;;;;;5116067;28;20463;-70
2023/04/11 03:38:17;;;;;;;1.80;0.77;;;;;;;;;;5116336;28;20538;-70
2023/04/11 03:40:47;;;;;;;2.20;0.83;;;;;;;;;;5117427;28;20465;-70
2023/04/11 03:43:15;;;;;;;3.13;1.10;;;;;;;;;;5108797;28;20495;-70
2023/04/11 03:45:43;;;;;;;1.60;0.80;;;;;;;;;;5096220;28;20522;-70
2023/04/11 03:48:11;;;;;;;1.53;0.73;;;;;;;;;;5096358;28;20462;-70
2023/04/11 03:50:44;;;;;;;1.73;0.73;;;;;;;;;;5096626;28;20460;-70
2023/04/11 03:53:11;;;;;;;3.17;0.93;;;;;;;;;;5094989;28;20500;-70
2023/04/11 03:55:39;;;;;;;4.83;0.90;;;;;;;;;;5092996;28;20475;-70
2023/04/11 03:58:08;;;;;;;2.37;1.10;;;;;;;;;;5110723;28;20859;-69
2023/04/11 04:00:36;;;;;;;2.67;0.67;;;;;;;;;;5114045;28;20451;-70
2023/04/11 04:03:05;;;;;;;3.33;0.97;;;;;;;;;;5112307;28;20451;-70
2023/04/11 04:05:33;;;;;;;1.70;0.77;;;;;;;;;;5112080;28;20459;-70
2023/04/11 04:08:01;;;;;;;4.57;1.17;;;;;;;;;;5111552;28;20451;-69
2023/04/11 04:10:28;;;;;;;2.20;1.20;;;;;;;;;;5108217;28;20708;-70
2023/04/11 04:12:56;;;;;;;3.63;0.77;;;;;;;;;;5095854;28;21270;-70
2023/04/11 04:15:25;;;;;;;3.50;0.87;;;;;;;;;;5095370;28;20455;-70
2023/04/11 04:17:52;;;;;;;4.30;1.17;;;;;;;;;;5096360;28;20531;-70
2023/04/11 04:20:21;;;;;;;2.90;1.00;;;;;;;;;;5097339;28;20456;-70
2023/04/11 04:22:48;;;;;;;4.07;0.87;;;;;;;;;;5094998;28;20773;-70
2023/04/11 04:25:19;;;;;;;2.10;1.20;;;;;;;;;;5111810;28;20545;-71
2023/04/11 04:27:46;;;;;;;1.80;0.80;;;;;;;;;;5116805;28;20454;-70
2023/04/11 04:30:27;;;;;;;3.17;1.00;;;;;;;;;;5115574;28;20905;-69
2023/04/11 04:32:57;;;;;;;6.67;1.30;;;;;;;;;;5115421;28;20731;-70
2023/04/11 04:35:25;;;;;;;5.27;1.00;;;;;;;;;;5115900;28;20472;-70
2023/04/11 04:37:53;;;;;;;1.83;0.80;;;;;;;;;;5107592;28;20452;-70
2023/04/11 04:40:21;;;;;;;2.83;1.30;;;;;;;;;;5097720;28;20608;-69
2023/04/11 04:42:56;;;;;;;2.40;0.97;;;;;;;;;;5096020;28;20458;-70
2023/04/11 04:45:25;;;;;;;1.57;0.80;;;;;;;;;;5106240;28;20747;-69
2023/04/11 04:47:53;;;;;;;3.30;1.00;;;;;;;;;;5116367;28;20466;-69
2023/04/11 04:50:22;;;;;;;4.90;1.20;;;;;;;;;;5116240;28;20882;-70
2023/04/11 04:52:49;;;;;;;2.90;1.17;;;;;;;;;;5114242;28;20479;-71
2023/04/11 04:55:19;;;;;;;8.07;1.03;;;;;;;;;;5114586;28;20532;-70
2023/04/11 04:57:51;;;;;;;2.13;0.77;;;;;;;;;;5116494;28;20461;-71
2023/04/11 05:00:18;;;;;;;3.40;0.70;;;;;;;;;;5117951;28;20732;-71
2023/04/11 05:02:46;;;;;;;6.97;1.20;;;;;;;;;;5116822;28;20452;-70
2023/04/11 05:05:14;;;;;;;2.73;0.90;;;;;;;;;;5114098;28;20523;-69
2023/04/11 05:07:44;;;;;;;6.33;1.33;;;;;;;;;;5117310;28;20486;-70
2023/04/11 05:10:20;;;;;;;3.47;1.20;;;;;;;;;;5116807;28;20450;-70
2023/04/11 05:12:52;;;;;;;4.40;1.00;;;;;;;;;;5117044;28;20483;-70
2023/04/11 05:15:26;;;;;;;3.10;1.10;;;;;;;;;;5115382;28;20479;-71
2023/04/11 05:17:54;;;;;;;3.47;0.80;;;;;;;;;;5113686;28;20455;-70
2023/04/11 05:20:23;;;;;;;2.83;0.90;;;;;;;;;;5095929;28;20499;-70
2023/04/11 05:22:52;;;;;;;3.17;0.97;;;;;;;;;;5094891;28;20831;-70
2023/04/11 05:25:22;;;;;;;2.07;1.10;;;;;;;;;;5093354;28;20491;-70
2023/04/11 05:27:51;;;;;;;3.97;1.10;;;;;;;;;;5096369;28;20478;-70
2023/04/11 05:30:19;;;;;;;2.17;0.90;;;;;;;;;;5114849;28;20455;-70
2023/04/11 05:32:49;;;;;;;3.80;2.13;;;;;;;;;;5113027;28;20486;-70
2023/04/11 05:35:17;;;;;;;3.83;1.20;;;;;;;;;;5113771;28;20454;-69
2023/04/11 05:37:45;;;;;;;2.53;0.70;;;;;;;;;;5112077;28;20570;-69
2023/04/11 05:40:23;;;;;;;4.97;1.77;;;;;;;;;;5111796;28;20467;-70
2023/04/11 05:42:51;;;;;;;2.13;1.00;;;;;;;;;;5111184;28;20453;-70
2023/04/11 05:45:19;;;;;;;4.03;1.27;;;;;;;;;;5090350;28;20503;-70
2023/04/11 05:47:46;;;;;;;4.07;1.10;;;;;;;;;;5093974;28;20487;-70
2023/04/11 05:50:22;;;;;;;3.40;1.13;;;;;;;;;;5103897;28;20558;-71
2023/04/11 05:52:54;;;;;;;5.07;1.77;;;;;;;;;;5112912;28;20494;-70
2023/04/11 05:55:23;;;;;;;5.83;1.27;;;;;;;;;;5114517;28;20451;-70
2023/04/11 05:57:51;;;;;;;6.70;1.43;;;;;;;;;;5111501;28;20807;-70
2023/04/11 06:00:19;;;;;;;5.03;1.17;;;;;;;;;;5111952;28;20455;-70
2023/04/11 06:02:47;;;;;;;3.47;1.53;;;;;;;;;;5100046;28;20796;-70
2023/04/11 06:05:16;;;;;;;5.87;1.40;;;;;;;;;;5100475;28;20448;-70
2023/04/11 06:07:44;;;;;;;9.13;1.33;;;;;;;;;;5092072;28;20449;-70
2023/04/11 06:10:19;;;;;;;3.17;1.67;;;;;;;;;;5090695;28;20467;-70
2023/04/11 06:12:53;;;;;;;6.60;1.80;;;;;;;;;;5099586;27;20788;-70
2023/04/11 06:15:27;;;;;;;5.47;1.70;;;;;;;;;;5132122;27;20449;-71
2023/04/11 06:17:55;;;;;;;3.40;1.10;;;;;;;;;;5131305;27;20458;-70
2023/04/11 06:20:23;;;;;;;4.57;0.97;;;;;;;;;;5128094;27;20447;-71
2023/04/11 06:22:50;;;;;;;4.73;1.30;;;;;;;;;;5110713;28;20853;-70
2023/04/11 06:25:18;;;;;;;11.43;1.60;;;;;;;;;;5109148;28;20519;-70
2023/04/11 06:27:46;;;;;;;3.53;1.50;;;;;;;;;;5109917;28;20451;-71
2023/04/11 06:30:20;;;;;;;6.93;1.43;;;;;;;;;;5111550;28;20455;-70
2023/04/11 06:32:47;;;;;;;6.00;2.00;;;;;;;;;;5105269;28;20487;-71
2023/04/11 06:35:15;;;;;;;3.10;1.30;;;;;;;;;;5107199;28;20467;-71
2023/04/11 06:37:44;;;;;;;6.63;1.67;;;;;;;;;;5110504;28;20763;-71
2023/04/11 06:40:25;;;;;;;3.90;1.60;;;;;;;;;;5106995;27;20456;-68
2023/04/11 06:42:53;;;;;;;3.27;1.30;;;;;;;;;;5116347;27;20459;-71
2023/04/11 06:45:21;;;;;;;5.03;1.40;;;;;;;;;;5111302;28;20534;-69
2023/04/11 06:47:50;;;;;;;3.43;1.43;;;;;;;;;;5110345;28;20528;-70
2023/04/11 06:50:21;;;;;;;4.03;1.70;;;;;;;;;;5110116;28;20454;-70
2023/04/11 06:52:48;;;;;;;2.80;1.30;;;;;;;;;;5091889;28;20502;-70
2023/04/11 06:55:21;;;;;;;7.80;1.90;;;;;;;;;;5090713;28;20467;-70
2023/04/11 06:57:55;;;;;;;7.50;1.90;;;;;;;;;;5089239;28;20471;-69
2023/04/11 07:00:30;;;;;;;3.30;1.47;;;;;;;;;;5099474;28;20455;-69
2023/04/11 07:03:06;;;;;;;3.63;1.37;;;;;;;;;;5107332;28;20451;-70
2023/04/11 07:05:33;;;;;;;2.93;1.20;;;;;;;;;;5107929;28;20497;-69
2023/04/11 07:08:02;;;;;;;2.63;1.57;;;;;;;;;;5110544;28;20487;-69
2023/04/11 07:10:30;;;;;;;2.43;1.33;;;;;;;;;;5111351;28;21008;-70
2023/04/11 07:12:57;;;;;;;4.53;1.60;;;;;;;;;;5109783;28;20510;-69
2023/04/11 07:15:26;;;;;;;5.40;2.10;;;;;;;;;;5109323;28;20453;-69
2023/04/11 07:17:58;;;;;;;4.20;1.83;;;;;;;;;;5109873;28;20710;-70
2023/04/11 07:20:31;;;;;;;4.80;1.57;;;;;;;;;;5110404;28;20560;-70
2023/04/11 07:23:01;;;;;;;2.40;1.40;;;;;;;;;;5110108;28;20443;-70
2023/04/11 07:25:32;;;;;;;3.10;1.30;;;;;;;;;;5108848;28;20447;-69
2023/04/11 07:28:06;;;;;;;5.03;1.60;;;;;;;;;;5109067;28;20533;-71
2023/04/11 07:30:47;;;;;;;3.57;1.40;;;;;;;;;;5110324;28;20522;-70
2023/04/11 07:33:15;;;;;;;4.27;1.30;;;;;;;;;;5109829;28;20815;-69
2023/04/11 07:35:43;;;;;;;2.17;1.30;;;;;;;;;;5111149;28;21108;-70
2023/04/11 07:38:14;;;;;;;3.87;1.53;;;;;;;;;;5109748;28;20555;-69
2023/04/11 07:40:48;;;;;;;2.70;1.60;;;;;;;;;;5111288;28;20451;-69
2023/04/11 07:43:15;;;;;;;2.07;1.23;;;;;;;;;;5110662;28;21010;-70
2023/04/11 07:45:44;;;;;;;4.43;1.00;;;;;;;;;;5114190;28;20516;-70
2023/04/11 07:48:12;;;;;;;4.90;1.10;;;;;;;;;;5114201;28;20707;-69
2023/04/11 07:50:46;;;;;;;3.60;1.30;;;;;;;;;;5115488;28;20451;-69
2023/04/11 07:53:17;;;;;;;1.40;0.80;;;;;;;;;;5107010;28;20522;-70
2023/04/11 07:55:45;;;;;;;2.17;1.17;;;;;;;;;;5113344;28;20480;-69
2023/04/11 07:58:13;;;;;;;1.87;1.00;;;;;;;;;;5112268;28;20765;-69
2023/04/11 08:00:53;;;;;;;1.57;1.00;;;;;;;;;;5112967;28;20493;-69
2023/04/11 08:03:23;;;;;;;2.97;1.70;;;;;;;;;;5097014;28;20903;-69
2023/04/11 08:05:52;;;;;;;2.03;1.10;;;;;;;;;;5092957;28;20443;-69
2023/04/11 08:08:22;;;;;;;2.07;1.27;;;;;;;;;;5100669;28;20563;-69
2023/04/11 08:10:50;;;;;;;2.60;1.13;;;;;;;;;;5113921;28;20454;-69
2023/04/11 08:13:18;;;;;;;4.03;1.83;;;;;;;;;;5107605;28;20578;-69
2023/04/11 08:15:45;;;;;;;4.67;2.50;;;;;;;;;;5093562;28;20455;-69
2023/04/11 08:18:15;;;;;;;2.17;1.30;;;;;;;;;;5106688;28;20455;-69
2023/04/11 08:20:47;;;;;;;3.27;1.90;;;;;;;;;;5113597;28;20450;-69
2023/04/11 08:23:18;;;;;;;6.80;2.80;;;;;;;;;;5106422;28;20527;-70
2023/04/11 08:25:52;;;;;;;4.50;2.60;;;;;;;;;;5115139;28;20453;-69
2023/04/11 08:28:21;;;;;;;4.50;2.20;;;;;;;;;;5113408;28;20446;-69
2023/04/11 08:30:54;;;;;;;2.97;2.50;;;;;;;;;;5112509;28;20459;-71
2023/04/11 08:33:24;;;;;;;4.07;2.40;;;;;;;;;;5114195;28;20873;-68
2023/04/11 08:35:53;;;;;;;4.03;2.33;;;;;;;;;;5112930;28;20480;-70
2023/04/11 08:38:21;;;;;;;8.80;2.53;;;;;;;;;;5112633;28;20455;-68
2023/04/11 08:40:48;;;;;;;3.77;1.90;;;;;;;;;;5113854;28;20466;-69
2023/04/11 08:43:16;;;;;;;3.93;2.50;;;;;;;;;;5112824;28;20541;-69
2023/04/11 08:45:46;;;;;;;4.00;2.80;;;;;;;;;;5110836;28;20566;-69
2023/04/11 08:48:18;;;;;;;4.33;2.70;;;;;;;;;;5110227;28;20459;-69
2023/04/11 08:50:50;;;;;;;5.30;3.07;;;;;;;;;;5112233;28;20458;-69
2023/04/11 08:53:20;;;;;;;5.77;2.37;;;;;;;;;;5109993;28;21183;-70
2023/04/11 08:55:48;;;;;;;4.17;2.80;;;;;;;;;;5109554;27;20458;-69
2023/04/11 08:58:17;;;;;;;4.03;2.47;;;;;;;;;;5105661;27;20544;-71
2023/04/11 09:00:45;;;;;;;7.50;3.07;;;;;;;;;;5112105;28;20542;-70
2023/04/11 09:03:24;;;;;;;5.50;2.00;;;;;;;;;;5093179;28;21148;-71
2023/04/11 09:06:19;;;;;;;8.23;2.90;;;;;;;;;;5108648;28;20498;-68
2023/04/11 09:08:48;;;;;;;6.10;3.37;;;;;;;;;;5093918;28;20455;-70
2023/04/11 09:11:18;;;;;;;8.13;3.17;;;;;;;;;;5118684;27;20459;-70
2023/04/11 09:13:47;;;;;;;6.50;2.70;;;;;;;;;;5101583;28;20957;-68
2023/04/11 09:16:22;;;;;;;4.40;2.97;;;;;;;;;;5110909;28;20489;-69
2023/04/11 09:18:50;;;;;;;6.20;3.03;;;;;;;;;;5108538;28;20454;-69
2023/04/11 09:21:18;;;;;;;4.37;3.37;;;;;;;;;;5109550;28;20481;-69
2023/04/11 09:23:48;;;;;;;6.37;2.63;;;;;;;;;;5109992;28;20489;-68
2023/04/11 09:26:26;;;;;;;5.93;2.70;;;;;;;;;;5099493;28;20978;-68
2023/04/11 09:28:54;;;;;;;6.03;2.23;;;;;;;;;;5092045;28;20455;-69
2023/04/11 09:31:24;;;;;;;5.23;3.33;;;;;;;;;;5106898;28;20550;-68
2023/04/11 09:33:55;;;;;;;6.30;3.50;;;;;;;;;;5103126;28;20487;-68
2023/04/11 09:36:25;;;;;;;6.23;2.20;;;;;;;;;;5089173;28;20543;-68
2023/04/11 09:38:54;;;;;;;7.37;2.87;;;;;;;;;;5105872;28;20440;-69
2023/04/11 09:41:36;;;;;;;4.07;2.90;;;;;;;;;;5103500;28;20499;-70
2023/04/11 09:44:04;;;;;;;5.77;2.80;;;;;;;;;;5092816;28;20881;-70
2023/04/11 09:46:31;;;;;;;3.60;1.97;;;;;;;;;;5108282;28;20468;-68
2023/04/11 09:49:03;;;;;;;4.13;2.37;;;;;;;;;;5111388;28;20854;-69
2023/04/11 09:51:30;;;;;;;4.43;1.70;;;;;;;;;;5111590;28;20483;-69
2023/04/11 09:53:58;;;;;;;2.77;2.23;;;;;;;;;;5109978;28;20487;-68
2023/04/11 09:56:26;;;;;;;3.40;1.40;;;;;;;;;;5110073;28;20529;-68
2023/04/11 09:58:59;;;;;;;3.53;0.97;;;;;;;;;;5110085;28;20540;-68
2023/04/11 10:01:27;;;;;;;4.43;1.50;;;;;;;;;;5106839;27;20475;-68
2023/04/11 10:03:57;;;;;;;2.60;1.20;;;;;;;;;;5088032;28;20975;-68
2023/04/11 10:06:38;;;;;;;2.00;1.00;;;;;;;;;;5104663;28;20452;-69
2023/04/11 10:09:16;;;;;;;1.87;0.60;;;;;;;;;;5101659;27;20443;-68
2023/04/11 10:11:46;;;;;;;3.50;0.80;;;;;;;;;;5108390;28;20536;-69
2023/04/11 10:14:33;;;;;;;2.03;0.80;;;;;;;;;;5108803;28;20479;-70
2023/04/11 10:17:18;;;;;;;5.10;1.30;;;;;;;;;;5111014;28;20561;-69
2023/04/11 10:19:47;;;;;;;5.40;1.77;;;;;;;;;;5102751;28;20482;-69
2023/04/11 10:22:45;;;;;;;3.20;1.10;;;;;;;;;;5110454;27;20488;-70
2023/04/11 10:25:16;;;;;;;1.30;0.60;;;;;;;;;;5110310;28;20567;-69
2023/04/11 10:27:48;;;;;;;2.00;0.90;;;;;;;;;;5111513;28;20558;-69
2023/04/11 10:30:37;;;;;;;3.50;0.97;;;;;;;;;;5109110;28;20907;-72
2023/04/11 10:33:16;;;;;;;2.77;1.67;;;;;;;;;;5104008;28;20464;-69
2023/04/11 10:36:02;;;;;;;3.43;0.90;;;;;;;;;;5106378;28;20493;-69
2023/04/11 10:38:58;;;;;;;1.70;0.80;;;;;;;;;;5111109;28;20877;-69
2023/04/11 10:41:30;;;;;;;2.57;0.90;;;;;;;;;;5110834;28;20526;-69
2023/04/11 10:44:13;;;;;;;2.70;1.10;;;;;;;;;;5118206;27;20524;-69
2023/04/11 10:46:45;;;;;;;3.30;1.30;;;;;;;;;;5111523;28;20456;-68
2023/04/11 10:49:12;;;;;;;1.47;0.90;;;;;;;;;;5110111;28;20461;-69
2023/04/11 10:51:45;;;;;;;1.80;1.10;;;;;;;;;;5110573;28;20451;-69
2023/04/11 10:54:25;;;;;;;1.90;1.10;;;;;;;;;;5107294;28;20483;-69
2023/04/11 10:56:58;;;;;;;2.90;1.33;;;;;;;;;;5108882;28;20519;-69
2023/04/11 10:59:44;;;;;;;2.17;0.80;;;;;;;;;;5106152;28;21140;-68
2023/04/11 11:02:13;;;;;;;3.50;1.57;;;;;;;;;;5109215;28;20974;-69
2023/04/11 11:04:41;;;;;;;1.70;1.00;;;;;;;;;;5108621;28;21069;-68
2023/04/11 11:07:16;;;;;;;3.80;1.20;;;;;;;;;;5102839;28;20753;-69
2023/04/11 11:09:55;;;;;;;2.63;1.57;;;;;;;;;;5086974;28;20844;-68
2023/04/11 11:18:08;;;;;;;3.30;1.67;;;;;;;;;;5118026;27;20458;-69
2023/04/11 11:20:49;;;;;;;2.30;1.17;;;;;;;;;;5099674;27;20482;-69
2023/04/11 11:23:29;;;;;;;3.93;2.80;;;;;;;;;;5089970;28;20456;-69
2023/04/11 11:26:00;;;;;;;6.40;1.33;;;;;;;;;;5104552;28;21004;-69
2023/04/11 11:28:32;;;;;;;2.73;1.43;;;;;;;;;;5104442;28;20487;-69
2023/04/11 11:31:02;;;;;;;3.20;1.60;;;;;;;;;;5109809;28;20475;-69
2023/04/11 11:33:43;;;;;;;4.70;2.43;;;;;;;;;;5110260;28;20455;-68
2023/04/11 11:36:13;;;;;;;2.97;1.50;;;;;;;;;;5125406;28;20473;-68
2023/04/11 11:38:41;;;;;;;4.10;1.90;;;;;;;;;;5129343;28;20588;-68
2023/04/11 11:41:09;;;;;;;4.67;1.83;;;;;;;;;;5130773;28;20446;-69
2023/04/11 11:43:45;;;;;;;2.33;1.50;;;;;;;;;;5114128;28;20720;-69
2023/04/11 11:46:16;;;;;;;3.30;1.43;;;;;;;;;;5106365;28;20515;-68
2023/04/11 11:49:02;;;;;;;3.10;1.50;;;;;;;;;;5110086;28;20458;-68
2023/04/11 11:51:41;;;;;;;6.80;3.70;;;;;;;;;;5089861;28;20459;-68
2023/04/11 11:54:08;;;;;;;3.50;1.53;;;;;;;;;;5089260;28;20499;-67
2023/04/11 11:56:38;;;;;;;3.10;1.43;;;;;;;;;;5094053;28;20535;-69
2023/04/11 11:59:09;;;;;;;4.43;1.60;;;;;;;;;;5088247;28;20513;-68
2023/04/11 12:01:37;;;;;;;4.17;2.20;;;;;;;;;;5089055;28;20525;-69
2023/04/11 12:04:12;;;;;;;4.60;2.33;;;;;;;;;;5087549;28;20560;-68
2023/04/11 12:06:40;;;;;;;4.47;2.63;;;;;;;;;;5087910;28;20455;-68
2023/04/11 12:09:11;;;;;;;4.60;1.93;;;;;;;;;;5085486;28;20460;-68
2023/04/11 12:11:39;;;;;;;5.47;2.13;;;;;;;;;;5076933;28;20465;-68
2023/04/11 12:14:13;;;;;;;2.53;1.70;;;;;;;;;;5064852;28;20441;-69
2023/04/11 12:16:41;;;;;;;1.97;1.30;;;;;;;;;;5062598;28;20509;-70
2023/04/11 12:19:09;;;;;;;5.00;1.27;;;;;;;;;;5064355;28;20479;-68
2023/04/11 12:21:37;;;;;;;3.20;1.70;;;;;;;;;;5066429;28;20476;-68
2023/04/11 12:24:06;;;;;;;4.40;1.33;;;;;;;;;;5064806;28;20468;-70
2023/04/11 12:26:37;;;;;;;3.20;1.30;;;;;;;;;;5066277;28;20547;-71
2023/04/11 12:29:10;;;;;;;1.90;1.00;;;;;;;;;;5063491;28;20551;-69
2023/04/11 12:31:43;;;;;;;2.30;1.17;;;;;;;;;;5070301;28;20464;-69
2023/04/11 12:34:11;;;;;;;4.03;1.20;;;;;;;;;;5071624;28;20465;-68
2023/04/11 12:36:42;;;;;;;4.03;0.90;;;;;;;;;;5070768;28;20452;-69
2023/04/11 12:39:10;;;;;;;1.60;0.70;;;;;;;;;;5071408;28;20449;-68
2023/04/11 12:41:37;;;;;;;6.50;1.00;;;;;;;;;;5071137;28;20449;-69
2023/04/11 12:44:07;;;;;;;2.17;0.83;;;;;;;;;;5089761;28;20468;-69
2023/04/11 12:46:35;;;;;;;2.27;1.27;;;;;;;;;;5089465;28;20477;-69
2023/04/11 12:49:04;;;;;;;3.00;1.37;;;;;;;;;;5090239;28;20491;-69
2023/04/11 12:51:35;;;;;;;6.77;2.90;;;;;;;;;;5086440;28;20455;-70
2023/04/11 12:54:03;;;;;;;2.33;1.00;;;;;;;;;;5089040;28;20837;-68
2023/04/11 12:56:31;;;;;;;6.63;1.97;;;;;;;;;;5089769;28;20576;-69
2023/04/11 12:58:59;;;;;;;3.30;1.67;;;;;;;;;;5090955;28;20450;-71
2023/04/11 13:01:31;;;;;;;2.10;1.20;;;;;;;;;;5086109;28;20476;-69
2023/04/11 13:04:01;;;;;;;3.40;2.10;;;;;;;;;;5092276;28;20687;-70
2023/04/11 13:06:31;;;;;;;3.27;1.80;;;;;;;;;;5090946;28;20556;-69
2023/04/11 13:09:03;;;;;;;7.43;1.67;;;;;;;;;;5090124;28;20528;-70
2023/04/11 13:11:31;;;;;;;3.17;1.10;;;;;;;;;;5092323;28;20460;-70
2023/04/11 13:13:59;;;;;;;7.07;0.90;;;;;;;;;;5090440;28;20458;-68
2023/04/11 13:16:44;;;;;;;2.43;1.33;;;;;;;;;;5090360;28;20483;-69
2023/04/11 13:19:23;;;;;;;2.30;1.00;;;;;;;;;;5089369;28;20513;-68
2023/04/11 13:21:59;;;;;;;2.70;0.90;;;;;;;;;;5086212;28;21125;-70
2023/04/11 13:24:38;;;;;;;2.17;1.43;;;;;;;;;;5078213;28;20496;-68
2023/04/11 13:27:12;;;;;;;3.20;1.13;;;;;;;;;;5089265;28;20479;-69
2023/04/11 13:29:43;;;;;;;3.70;1.60;;;;;;;;;;5089801;28;20469;-70
2023/04/11 13:32:26;;;;;;;3.83;1.23;;;;;;;;;;5091357;28;20471;-69
2023/04/11 13:35:01;;;;;;;2.30;0.73;;;;;;;;;;5072956;28;20583;-69
2023/04/11 13:37:31;;;;;;;2.80;0.97;;;;;;;;;;5069258;28;21064;-69
2023/04/11 13:42:57;;;;;;;3.00;2.10;;;;;;;;;;5077205;28;20550;-70
2023/04/11 13:45:25;;;;;;;2.93;1.30;;;;;;;;;;5084855;28;20471;-71
2023/04/11 13:47:53;;;;;;;3.67;1.07;;;;;;;;;;5087502;28;20452;-70
2023/04/11 13:50:21;;;;;;;3.70;0.83;;;;;;;;;;5088768;28;20453;-68
2023/04/11 13:52:53;;;;;;;6.20;1.27;;;;;;;;;;5086804;28;20464;-69
2023/04/11 13:55:30;;;;;;;1.80;0.80;;;;;;;;;;5088050;28;20476;-68
2023/04/11 13:58:01;;;;;;;3.67;1.00;;;;;;;;;;5086461;28;20462;-70
2023/04/11 14:00:53;;;;;;;4.10;1.20;;;;;;;;;;5091240;28;20534;-69
2023/04/11 14:03:28;;;;;;;3.90;1.20;;;;;;;;;;5082723;28;20950;-68
2023/04/11 14:08:35;;;;;;;2.23;1.30;;;;;;;;;;5088326;28;20482;-69
2023/04/11 14:11:03;;;;;;;6.70;2.10;;;;;;;;;;5089934;28;20805;-69
2023/04/11 14:13:47;;;;;;;10.17;1.87;;;;;;;;;;5091115;28;20456;-70
2023/04/11 14:16:28;;;;;;;4.47;1.57;;;;;;;;;;5090607;28;20484;-70
2023/04/11 14:19:01;;;;;;;6.47;1.23;;;;;;;;;;5083005;28;20883;-69
2023/04/11 14:21:37;;;;;;;7.93;1.10;;;;;;;;;;5090531;28;20452;-68
2023/04/11 14:24:13;;;;;;;2.90;1.63;;;;;;;;;;5090156;28;20575;-70
2023/04/11 14:26:43;;;;;;;6.40;1.47;;;;;;;;;;5086605;28;20466;-69
2023/04/11 14:29:15;;;;;;;2.53;1.00;;;;;;;;;;5077107;28;20488;-70
2023/04/11 14:31:54;;;;;;;8.00;1.47;;;;;;;;;;5089694;28;20503;-71
2023/04/11 14:34:33;;;;;;;3.30;1.17;;;;;;;;;;5088432;28;20460;-70
2023/04/11 14:37:06;;;;;;;4.30;1.20;;;;;;;;;;5088002;28;21084;-67
2023/04/11 14:39:41;;;;;;;1.87;0.90;;;;;;;;;;5086391;28;20555;-68
2023/04/11 14:42:32;;;;;;;4.37;2.67;;;;;;;;;;5086932;28;20505;-69
2023/04/11 14:45:12;;;;;;;;;;;;;;;;;;;;;
2023/04/11 14:47:50;;;;;;;6.07;1.47;;;;;;;;;;5078352;28;20729;-69
2023/04/11 14:50:33;;;;;;;7.07;1.53;;;;;;;;;;5088752;28;20885;-69
2023/04/11 14:53:04;;;;;;;1.60;0.77;;;;;;;;;;5067102;28;20540;-70
2023/04/11 14:55:36;;;;;;;4.47;1.23;;;;;;;;;;5066053;28;20788;-70
2023/04/11 14:58:09;;;;;;;2.23;0.97;;;;;;;;;;5065115;28;20464;-70
2023/04/11 15:00:57;;;;;;;2.33;0.90;;;;;;;;;;5085711;28;20502;-70
2023/04/11 15:03:26;;;;;;;1.60;0.70;;;;;;;;;;5083903;28;20448;-70
2023/04/11 15:05:58;;;;;;;3.60;1.03;;;;;;;;;;5085007;28;20581;-70
2023/04/11 15:08:26;;;;;;;2.70;0.93;;;;;;;;;;5083262;28;20706;-70
2023/04/11 15:11:07;;;;;;;2.67;0.93;;;;;;;;;;5066170;28;20461;-70
2023/04/11 15:13:46;;;;;;;3.83;1.23;;;;;;;;;;5067545;28;20745;-71
2023/04/11 15:16:14;;;;;;;2.90;1.10;;;;;;;;;;5084828;28;20542;-70
2023/04/11 15:19:02;;;;;;;;;;;;;;;;;;;;;
2023/04/11 15:21:34;;;;;;;3.73;1.73;;;;;;;;;;5066298;28;20464;-70